sensor_id;sensor_type;location;lat;lon;timestamp;P1;durP1;ratioP1;P2;durP2;ratioP2
75220;SDS011;63802;53.232;6.570;2024-01-30T00:01:24;32.17;;;13.45;;
75220;SDS011;63802;53.232;6.570;2024-01-30T00:04:01;27.77;;;13.02;;
75220;SDS011;63802;53.232;6.570;2024-01-30T00:06:28;24.92;;;12.18;;
75220;SDS011;63802;53.232;6.570;2024-01-30T00:08:55;25.73;;;12.95;;
75220;SDS011;63802;53.232;6.570;2024-01-30T00:11:21;23.67;;;12.48;;
75220;SDS011;63802;53.232;6.570;2024-01-30T00:13:50;24.80;;;13.00;;
75220;SDS011;63802;53.232;6.570;2024-01-30T00:16:29;29.42;;;14.18;;
75220;SDS011;63802;53.232;6.570;2024-01-30T00:18:55;27.23;;;12.52;;
75220;SDS011;63802;53.232;6.570;2024-01-30T00:21:34;33.85;;;13.23;;
75220;SDS011;63802;53.232;6.570;2024-01-30T00:24:00;28.92;;;13.25;;
75220;SDS011;63802;53.232;6.570;2024-01-30T00:26:28;27.05;;;12.88;;
75220;SDS011;63802;53.232;6.570;2024-01-30T00:31:31;22.70;;;12.85;;
75220;SDS011;63802;53.232;6.570;2024-01-30T00:34:07;26.65;;;12.30;;
75220;SDS011;63802;53.232;6.570;2024-01-30T00:36:33;27.92;;;13.25;;
75220;SDS011;63802;53.232;6.570;2024-01-30T00:52:17;26.20;;;12.95;;
75220;SDS011;63802;53.232;6.570;2024-01-30T00:54:44;25.63;;;12.75;;
75220;SDS011;63802;53.232;6.570;2024-01-30T00:57:10;29.20;;;13.63;;
75220;SDS011;63802;53.232;6.570;2024-01-30T00:59:36;28.70;;;13.18;;
75220;SDS011;63802;53.232;6.570;2024-01-30T01:07:13;26.10;;;12.40;;
75220;SDS011;63802;53.232;6.570;2024-01-30T01:09:40;25.90;;;13.15;;
75220;SDS011;63802;53.232;6.570;2024-01-30T01:12:06;28.35;;;14.00;;
75220;SDS011;63802;53.232;6.570;2024-01-30T01:17:39;28.08;;;14.43;;
75220;SDS011;63802;53.232;6.570;2024-01-30T01:20:12;25.80;;;13.57;;
75220;SDS011;63802;53.232;6.570;2024-01-30T01:22:42;30.35;;;13.48;;
75220;SDS011;63802;53.232;6.570;2024-01-30T01:25:12;29.83;;;15.20;;
75220;SDS011;63802;53.232;6.570;2024-01-30T01:27:51;27.90;;;13.45;;
75220;SDS011;63802;53.232;6.570;2024-01-30T01:30:23;28.42;;;13.95;;
75220;SDS011;63802;53.232;6.570;2024-01-30T01:33:09;28.17;;;13.02;;
75220;SDS011;63802;53.232;6.570;2024-01-30T01:35:42;30.50;;;14.52;;
75220;SDS011;63802;53.232;6.570;2024-01-30T01:38:07;31.20;;;13.90;;
75220;SDS011;63802;53.232;6.570;2024-01-30T01:40:33;28.23;;;14.82;;
75220;SDS011;63802;53.232;6.570;2024-01-30T01:43:09;32.20;;;13.60;;
75220;SDS011;63802;53.232;6.570;2024-01-30T01:45:36;26.63;;;13.93;;
75220;SDS011;63802;53.232;6.570;2024-01-30T01:50:33;26.20;;;12.52;;
75220;SDS011;63802;53.232;6.570;2024-01-30T01:53:07;25.60;;;12.93;;
75220;SDS011;63802;53.232;6.570;2024-01-30T01:55:46;27.08;;;14.20;;
75220;SDS011;63802;53.232;6.570;2024-01-30T01:58:17;30.38;;;13.60;;
75220;SDS011;63802;53.232;6.570;2024-01-30T02:00:47;26.92;;;14.75;;
75220;SDS011;63802;53.232;6.570;2024-01-30T02:03:14;27.33;;;12.63;;
75220;SDS011;63802;53.232;6.570;2024-01-30T02:06:05;31.63;;;14.13;;
75220;SDS011;63802;53.232;6.570;2024-01-30T02:08:31;28.10;;;13.82;;
75220;SDS011;63802;53.232;6.570;2024-01-30T02:10:59;33.08;;;13.60;;
75220;SDS011;63802;53.232;6.570;2024-01-30T02:13:26;26.45;;;13.38;;
75220;SDS011;63802;53.232;6.570;2024-01-30T02:16:01;26.65;;;13.63;;
75220;SDS011;63802;53.232;6.570;2024-01-30T02:18:31;29.83;;;14.20;;
75220;SDS011;63802;53.232;6.570;2024-01-30T02:21:06;29.90;;;14.33;;
75220;SDS011;63802;53.232;6.570;2024-01-30T02:23:44;26.98;;;13.80;;
75220;SDS011;63802;53.232;6.570;2024-01-30T02:26:12;29.25;;;12.98;;
75220;SDS011;63802;53.232;6.570;2024-01-30T02:28:39;27.88;;;13.32;;
75220;SDS011;63802;53.232;6.570;2024-01-30T02:31:05;28.52;;;12.75;;
75220;SDS011;63802;53.232;6.570;2024-01-30T02:33:48;29.60;;;13.68;;
75220;SDS011;63802;53.232;6.570;2024-01-30T02:36:17;23.35;;;12.75;;
75220;SDS011;63802;53.232;6.570;2024-01-30T02:45:13;30.55;;;12.93;;
75220;SDS011;63802;53.232;6.570;2024-01-30T02:47:46;24.83;;;13.43;;
75220;SDS011;63802;53.232;6.570;2024-01-30T02:50:19;24.70;;;12.82;;
75220;SDS011;63802;53.232;6.570;2024-01-30T02:52:45;26.00;;;13.02;;
75220;SDS011;63802;53.232;6.570;2024-01-30T02:55:12;25.95;;;12.40;;
75220;SDS011;63802;53.232;6.570;2024-01-30T02:57:38;28.85;;;12.90;;
75220;SDS011;63802;53.232;6.570;2024-01-30T03:00:08;29.98;;;14.32;;
75220;SDS011;63802;53.232;6.570;2024-01-30T03:05:18;25.50;;;12.90;;
75220;SDS011;63802;53.232;6.570;2024-01-30T03:07:49;29.42;;;12.93;;
75220;SDS011;63802;53.232;6.570;2024-01-30T03:10:15;21.95;;;12.45;;
75220;SDS011;63802;53.232;6.570;2024-01-30T03:12:40;25.13;;;12.43;;
75220;SDS011;63802;53.232;6.570;2024-01-30T03:15:16;23.92;;;11.57;;
75220;SDS011;63802;53.232;6.570;2024-01-30T03:17:43;26.98;;;12.38;;
75220;SDS011;63802;53.232;6.570;2024-01-30T03:20:28;27.35;;;12.57;;
75220;SDS011;63802;53.232;6.570;2024-01-30T03:22:55;25.15;;;12.55;;
75220;SDS011;63802;53.232;6.570;2024-01-30T03:25:21;28.00;;;12.63;;
75220;SDS011;63802;53.232;6.570;2024-01-30T03:27:57;25.35;;;12.90;;
75220;SDS011;63802;53.232;6.570;2024-01-30T03:30:37;34.50;;;13.45;;
75220;SDS011;63802;53.232;6.570;2024-01-30T03:33:27;25.17;;;11.85;;
75220;SDS011;63802;53.232;6.570;2024-01-30T03:36:13;26.55;;;12.05;;
75220;SDS011;63802;53.232;6.570;2024-01-30T03:38:41;22.77;;;11.07;;
75220;SDS011;63802;53.232;6.570;2024-01-30T03:41:08;26.02;;;12.57;;
75220;SDS011;63802;53.232;6.570;2024-01-30T03:43:35;24.10;;;11.40;;
75220;SDS011;63802;53.232;6.570;2024-01-30T03:46:03;22.95;;;12.02;;
75220;SDS011;63802;53.232;6.570;2024-01-30T03:48:29;26.20;;;12.77;;
75220;SDS011;63802;53.232;6.570;2024-01-30T03:54:00;32.95;;;11.90;;
75220;SDS011;63802;53.232;6.570;2024-01-30T03:56:35;27.63;;;11.77;;
75220;SDS011;63802;53.232;6.570;2024-01-30T03:59:10;21.67;;;11.40;;
75220;SDS011;63802;53.232;6.570;2024-01-30T04:01:55;22.23;;;11.68;;
75220;SDS011;63802;53.232;6.570;2024-01-30T04:07:17;20.52;;;10.55;;
75220;SDS011;63802;53.232;6.570;2024-01-30T04:09:43;21.05;;;11.02;;
75220;SDS011;63802;53.232;6.570;2024-01-30T04:12:11;23.67;;;10.55;;
75220;SDS011;63802;53.232;6.570;2024-01-30T04:14:44;22.75;;;10.75;;
75220;SDS011;63802;53.232;6.570;2024-01-30T04:17:11;23.48;;;11.27;;
75220;SDS011;63802;53.232;6.570;2024-01-30T04:19:44;22.42;;;11.25;;
75220;SDS011;63802;53.232;6.570;2024-01-30T04:24:49;21.00;;;10.73;;
75220;SDS011;63802;53.232;6.570;2024-01-30T04:27:28;21.05;;;10.75;;
75220;SDS011;63802;53.232;6.570;2024-01-30T04:29:53;22.23;;;11.15;;
75220;SDS011;63802;53.232;6.570;2024-01-30T04:32:26;22.05;;;11.13;;
75220;SDS011;63802;53.232;6.570;2024-01-30T04:34:59;22.75;;;10.85;;
75220;SDS011;63802;53.232;6.570;2024-01-30T04:40:47;23.08;;;10.48;;
75220;SDS011;63802;53.232;6.570;2024-01-30T04:43:19;22.40;;;10.40;;
75220;SDS011;63802;53.232;6.570;2024-01-30T04:45:51;16.92;;;9.18;;
75220;SDS011;63802;53.232;6.570;2024-01-30T04:48:26;21.70;;;10.20;;
75220;SDS011;63802;53.232;6.570;2024-01-30T04:51:11;19.92;;;10.27;;
75220;SDS011;63802;53.232;6.570;2024-01-30T04:53:48;18.60;;;10.00;;
75220;SDS011;63802;53.232;6.570;2024-01-30T04:56:14;21.92;;;10.30;;
75220;SDS011;63802;53.232;6.570;2024-01-30T05:03:51;20.08;;;9.70;;
75220;SDS011;63802;53.232;6.570;2024-01-30T05:06:36;22.13;;;10.43;;
75220;SDS011;63802;53.232;6.570;2024-01-30T05:09:02;18.73;;;9.45;;
75220;SDS011;63802;53.232;6.570;2024-01-30T05:14:41;17.40;;;8.25;;
75220;SDS011;63802;53.232;6.570;2024-01-30T05:17:17;21.30;;;10.07;;
75220;SDS011;63802;53.232;6.570;2024-01-30T05:20:01;24.02;;;9.45;;
75220;SDS011;63802;53.232;6.570;2024-01-30T05:22:35;25.42;;;10.27;;
75220;SDS011;63802;53.232;6.570;2024-01-30T05:25:04;18.58;;;9.38;;
75220;SDS011;63802;53.232;6.570;2024-01-30T05:27:33;17.20;;;9.68;;
75220;SDS011;63802;53.232;6.570;2024-01-30T05:30:15;20.45;;;9.23;;
75220;SDS011;63802;53.232;6.570;2024-01-30T05:32:50;20.60;;;9.38;;
75220;SDS011;63802;53.232;6.570;2024-01-30T05:35:20;20.95;;;9.43;;
75220;SDS011;63802;53.232;6.570;2024-01-30T05:37:48;17.77;;;9.40;;
75220;SDS011;63802;53.232;6.570;2024-01-30T05:40:15;18.58;;;9.10;;
75220;SDS011;63802;53.232;6.570;2024-01-30T05:42:47;19.63;;;9.48;;
75220;SDS011;63802;53.232;6.570;2024-01-30T05:45:13;20.30;;;10.15;;
75220;SDS011;63802;53.232;6.570;2024-01-30T05:47:41;17.30;;;8.50;;
75220;SDS011;63802;53.232;6.570;2024-01-30T05:50:11;19.40;;;9.85;;
75220;SDS011;63802;53.232;6.570;2024-01-30T05:52:36;20.17;;;9.45;;
75220;SDS011;63802;53.232;6.570;2024-01-30T05:55:02;19.40;;;8.88;;
75220;SDS011;63802;53.232;6.570;2024-01-30T05:57:28;20.00;;;9.88;;
75220;SDS011;63802;53.232;6.570;2024-01-30T05:59:54;20.73;;;9.75;;
75220;SDS011;63802;53.232;6.570;2024-01-30T06:02:20;21.30;;;9.90;;
75220;SDS011;63802;53.232;6.570;2024-01-30T06:04:45;22.55;;;9.95;;
75220;SDS011;63802;53.232;6.570;2024-01-30T06:07:11;18.00;;;9.93;;
75220;SDS011;63802;53.232;6.570;2024-01-30T06:09:46;18.75;;;9.13;;
75220;SDS011;63802;53.232;6.570;2024-01-30T06:12:13;19.30;;;9.23;;
75220;SDS011;63802;53.232;6.570;2024-01-30T06:14:39;16.30;;;8.85;;
75220;SDS011;63802;53.232;6.570;2024-01-30T06:17:05;18.85;;;9.70;;
75220;SDS011;63802;53.232;6.570;2024-01-30T06:19:30;20.05;;;9.80;;
75220;SDS011;63802;53.232;6.570;2024-01-30T06:22:08;19.77;;;9.02;;
75220;SDS011;63802;53.232;6.570;2024-01-30T06:24:36;22.73;;;9.60;;
75220;SDS011;63802;53.232;6.570;2024-01-30T06:27:12;21.42;;;9.23;;
75220;SDS011;63802;53.232;6.570;2024-01-30T06:29:37;15.15;;;8.32;;
75220;SDS011;63802;53.232;6.570;2024-01-30T06:32:06;20.95;;;8.95;;
75220;SDS011;63802;53.232;6.570;2024-01-30T06:34:40;19.15;;;9.20;;
75220;SDS011;63802;53.232;6.570;2024-01-30T06:37:08;18.00;;;8.60;;
75220;SDS011;63802;53.232;6.570;2024-01-30T06:39:34;17.88;;;9.02;;
75220;SDS011;63802;53.232;6.570;2024-01-30T06:42:00;17.52;;;8.25;;
75220;SDS011;63802;53.232;6.570;2024-01-30T06:47:42;20.38;;;9.40;;
75220;SDS011;63802;53.232;6.570;2024-01-30T06:50:19;19.08;;;9.63;;
75220;SDS011;63802;53.232;6.570;2024-01-30T06:53:04;19.27;;;9.07;;
75220;SDS011;63802;53.232;6.570;2024-01-30T06:55:43;18.35;;;8.68;;
75220;SDS011;63802;53.232;6.570;2024-01-30T06:58:21;17.20;;;8.77;;
75220;SDS011;63802;53.232;6.570;2024-01-30T07:00:48;18.27;;;8.20;;
75220;SDS011;63802;53.232;6.570;2024-01-30T07:03:14;17.92;;;8.63;;
75220;SDS011;63802;53.232;6.570;2024-01-30T07:05:40;16.98;;;9.18;;
75220;SDS011;63802;53.232;6.570;2024-01-30T07:11:19;19.83;;;9.23;;
75220;SDS011;63802;53.232;6.570;2024-01-30T07:13:50;17.85;;;8.82;;
75220;SDS011;63802;53.232;6.570;2024-01-30T07:16:23;20.13;;;8.82;;
75220;SDS011;63802;53.232;6.570;2024-01-30T07:18:49;17.85;;;8.75;;
75220;SDS011;63802;53.232;6.570;2024-01-30T07:21:24;18.30;;;8.13;;
75220;SDS011;63802;53.232;6.570;2024-01-30T07:23:53;17.55;;;8.13;;
75220;SDS011;63802;53.232;6.570;2024-01-30T07:26:23;16.60;;;8.30;;
75220;SDS011;63802;53.232;6.570;2024-01-30T07:31:16;19.23;;;9.07;;
75220;SDS011;63802;53.232;6.570;2024-01-30T07:33:56;19.55;;;8.18;;
75220;SDS011;63802;53.232;6.570;2024-01-30T07:36:23;16.92;;;8.93;;
75220;SDS011;63802;53.232;6.570;2024-01-30T07:39:10;20.13;;;8.80;;
75220;SDS011;63802;53.232;6.570;2024-01-30T07:41:39;18.48;;;8.93;;
75220;SDS011;63802;53.232;6.570;2024-01-30T07:44:11;16.50;;;8.50;;
75220;SDS011;63802;53.232;6.570;2024-01-30T07:49:43;20.17;;;9.65;;
75220;SDS011;63802;53.232;6.570;2024-01-30T07:52:09;18.15;;;8.70;;
75220;SDS011;63802;53.232;6.570;2024-01-30T07:54:50;19.50;;;9.00;;
75220;SDS011;63802;53.232;6.570;2024-01-30T07:57:17;17.83;;;8.35;;
75220;SDS011;63802;53.232;6.570;2024-01-30T08:00:08;18.95;;;8.88;;
75220;SDS011;63802;53.232;6.570;2024-01-30T08:03:26;20.92;;;8.27;;
75220;SDS011;63802;53.232;6.570;2024-01-30T08:06:02;17.42;;;8.20;;
75220;SDS011;63802;53.232;6.570;2024-01-30T08:08:35;18.25;;;8.40;;
75220;SDS011;63802;53.232;6.570;2024-01-30T08:11:02;20.15;;;8.55;;
75220;SDS011;63802;53.232;6.570;2024-01-30T08:13:35;17.52;;;8.65;;
75220;SDS011;63802;53.232;6.570;2024-01-30T08:18:49;19.05;;;7.95;;
75220;SDS011;63802;53.232;6.570;2024-01-30T08:21:23;16.02;;;8.13;;
75220;SDS011;63802;53.232;6.570;2024-01-30T08:23:55;15.32;;;7.95;;
75220;SDS011;63802;53.232;6.570;2024-01-30T08:26:41;16.17;;;8.32;;
75220;SDS011;63802;53.232;6.570;2024-01-30T08:29:27;14.88;;;7.78;;
75220;SDS011;63802;53.232;6.570;2024-01-30T08:32:14;17.30;;;7.90;;
75220;SDS011;63802;53.232;6.570;2024-01-30T08:34:46;18.83;;;8.35;;
75220;SDS011;63802;53.232;6.570;2024-01-30T08:37:12;17.88;;;8.10;;
75220;SDS011;63802;53.232;6.570;2024-01-30T08:42:33;17.48;;;8.07;;
75220;SDS011;63802;53.232;6.570;2024-01-30T08:45:09;17.88;;;8.70;;
75220;SDS011;63802;53.232;6.570;2024-01-30T08:47:36;20.25;;;8.18;;
75220;SDS011;63802;53.232;6.570;2024-01-30T08:50:09;13.93;;;7.82;;
75220;SDS011;63802;53.232;6.570;2024-01-30T08:52:43;14.93;;;7.57;;
75220;SDS011;63802;53.232;6.570;2024-01-30T08:55:30;15.57;;;7.80;;
75220;SDS011;63802;53.232;6.570;2024-01-30T08:57:58;16.10;;;7.93;;
75220;SDS011;63802;53.232;6.570;2024-01-30T09:00:30;18.57;;;8.07;;
75220;SDS011;63802;53.232;6.570;2024-01-30T09:03:09;16.45;;;7.72;;
75220;SDS011;63802;53.232;6.570;2024-01-30T09:05:34;17.85;;;8.25;;
75220;SDS011;63802;53.232;6.570;2024-01-30T09:08:03;21.55;;;8.13;;
75220;SDS011;63802;53.232;6.570;2024-01-30T09:10:29;20.02;;;7.95;;
75220;SDS011;63802;53.232;6.570;2024-01-30T09:13:11;18.65;;;7.88;;
75220;SDS011;63802;53.232;6.570;2024-01-30T09:15:36;18.33;;;8.23;;
75220;SDS011;63802;53.232;6.570;2024-01-30T09:18:02;22.00;;;8.02;;
75220;SDS011;63802;53.232;6.570;2024-01-30T09:20:29;18.65;;;8.77;;
75220;SDS011;63802;53.232;6.570;2024-01-30T09:22:58;16.10;;;7.95;;
75220;SDS011;63802;53.232;6.570;2024-01-30T09:30:31;13.98;;;7.82;;
75220;SDS011;63802;53.232;6.570;2024-01-30T09:33:10;17.05;;;8.05;;
75220;SDS011;63802;53.232;6.570;2024-01-30T09:35:36;16.48;;;8.02;;
75220;SDS011;63802;53.232;6.570;2024-01-30T09:38:26;18.45;;;8.35;;
75220;SDS011;63802;53.232;6.570;2024-01-30T09:44:35;13.77;;;6.90;;
75220;SDS011;63802;53.232;6.570;2024-01-30T09:47:06;19.10;;;7.88;;
75220;SDS011;63802;53.232;6.570;2024-01-30T09:49:32;16.42;;;7.70;;
75220;SDS011;63802;53.232;6.570;2024-01-30T09:52:03;15.18;;;7.97;;
75220;SDS011;63802;53.232;6.570;2024-01-30T09:54:40;17.20;;;7.88;;
75220;SDS011;63802;53.232;6.570;2024-01-30T09:57:11;14.88;;;7.28;;
75220;SDS011;63802;53.232;6.570;2024-01-30T09:59:37;15.90;;;6.88;;
75220;SDS011;63802;53.232;6.570;2024-01-30T10:02:12;18.73;;;7.47;;
75220;SDS011;63802;53.232;6.570;2024-01-30T10:04:39;14.98;;;7.68;;
75220;SDS011;63802;53.232;6.570;2024-01-30T10:07:05;16.88;;;7.80;;
75220;SDS011;63802;53.232;6.570;2024-01-30T10:09:31;17.10;;;7.22;;
75220;SDS011;63802;53.232;6.570;2024-01-30T10:11:59;16.35;;;6.88;;
75220;SDS011;63802;53.232;6.570;2024-01-30T10:14:25;15.63;;;7.68;;
75220;SDS011;63802;53.232;6.570;2024-01-30T10:19:46;14.93;;;7.18;;
75220;SDS011;63802;53.232;6.570;2024-01-30T10:22:13;17.92;;;7.47;;
75220;SDS011;63802;53.232;6.570;2024-01-30T10:24:39;14.30;;;6.88;;
75220;SDS011;63802;53.232;6.570;2024-01-30T10:27:06;15.82;;;7.57;;
75220;SDS011;63802;53.232;6.570;2024-01-30T10:29:31;16.33;;;7.78;;
75220;SDS011;63802;53.232;6.570;2024-01-30T10:32:01;19.23;;;7.38;;
75220;SDS011;63802;53.232;6.570;2024-01-30T10:34:27;20.20;;;7.47;;
75220;SDS011;63802;53.232;6.570;2024-01-30T10:37:01;15.73;;;7.55;;
75220;SDS011;63802;53.232;6.570;2024-01-30T10:39:32;16.67;;;8.07;;
75220;SDS011;63802;53.232;6.570;2024-01-30T10:42:03;15.02;;;7.20;;
75220;SDS011;63802;53.232;6.570;2024-01-30T10:44:39;16.73;;;7.15;;
75220;SDS011;63802;53.232;6.570;2024-01-30T10:47:18;15.32;;;7.38;;
75220;SDS011;63802;53.232;6.570;2024-01-30T10:49:51;17.48;;;7.75;;
75220;SDS011;63802;53.232;6.570;2024-01-30T10:52:17;16.70;;;7.82;;
75220;SDS011;63802;53.232;6.570;2024-01-30T10:54:44;14.65;;;7.35;;
75220;SDS011;63802;53.232;6.570;2024-01-30T10:57:10;20.70;;;8.57;;
75220;SDS011;63802;53.232;6.570;2024-01-30T10:59:37;17.95;;;8.80;;
75220;SDS011;63802;53.232;6.570;2024-01-30T11:02:03;16.48;;;8.18;;
75220;SDS011;63802;53.232;6.570;2024-01-30T11:04:37;25.75;;;8.73;;
75220;SDS011;63802;53.232;6.570;2024-01-30T11:07:02;20.48;;;8.43;;
75220;SDS011;63802;53.232;6.570;2024-01-30T11:09:39;18.42;;;8.10;;
75220;SDS011;63802;53.232;6.570;2024-01-30T11:12:04;16.85;;;7.68;;
75220;SDS011;63802;53.232;6.570;2024-01-30T11:14:30;18.23;;;7.82;;
75220;SDS011;63802;53.232;6.570;2024-01-30T11:16:59;14.90;;;7.38;;
75220;SDS011;63802;53.232;6.570;2024-01-30T11:19:25;18.15;;;7.57;;
75220;SDS011;63802;53.232;6.570;2024-01-30T11:21:52;20.60;;;8.77;;
75220;SDS011;63802;53.232;6.570;2024-01-30T11:24:19;18.00;;;7.75;;
75220;SDS011;63802;53.232;6.570;2024-01-30T11:26:58;16.33;;;6.85;;
75220;SDS011;63802;53.232;6.570;2024-01-30T11:29:26;14.38;;;6.97;;
75220;SDS011;63802;53.232;6.570;2024-01-30T11:31:56;18.83;;;6.07;;
75220;SDS011;63802;53.232;6.570;2024-01-30T11:34:22;11.57;;;5.32;;
75220;SDS011;63802;53.232;6.570;2024-01-30T11:36:57;15.48;;;5.50;;
75220;SDS011;63802;53.232;6.570;2024-01-30T11:39:27;17.02;;;6.30;;
75220;SDS011;63802;53.232;6.570;2024-01-30T11:41:54;11.20;;;5.00;;
75220;SDS011;63802;53.232;6.570;2024-01-30T11:44:21;17.77;;;5.07;;
75220;SDS011;63802;53.232;6.570;2024-01-30T11:46:53;18.05;;;4.70;;
75220;SDS011;63802;53.232;6.570;2024-01-30T11:49:18;9.77;;;4.03;;
75220;SDS011;63802;53.232;6.570;2024-01-30T11:51:47;12.18;;;3.75;;
75220;SDS011;63802;53.232;6.570;2024-01-30T11:54:16;8.55;;;3.67;;
75220;SDS011;63802;53.232;6.570;2024-01-30T11:56:42;9.25;;;3.42;;
75220;SDS011;63802;53.232;6.570;2024-01-30T11:59:08;9.88;;;3.70;;
75220;SDS011;63802;53.232;6.570;2024-01-30T12:01:34;6.50;;;3.22;;
75220;SDS011;63802;53.232;6.570;2024-01-30T12:03:59;14.52;;;3.60;;
75220;SDS011;63802;53.232;6.570;2024-01-30T12:06:25;11.20;;;3.55;;
75220;SDS011;63802;53.232;6.570;2024-01-30T12:09:00;9.07;;;3.10;;
75220;SDS011;63802;53.232;6.570;2024-01-30T12:11:31;6.93;;;3.53;;
75220;SDS011;63802;53.232;6.570;2024-01-30T12:13:57;10.50;;;3.60;;
75220;SDS011;63802;53.232;6.570;2024-01-30T12:16:22;8.48;;;2.33;;
75220;SDS011;63802;53.232;6.570;2024-01-30T12:18:48;4.38;;;1.95;;
75220;SDS011;63802;53.232;6.570;2024-01-30T12:21:17;3.85;;;1.88;;
75220;SDS011;63802;53.232;6.570;2024-01-30T12:23:45;3.70;;;1.70;;
75220;SDS011;63802;53.232;6.570;2024-01-30T12:26:11;4.82;;;1.42;;
75220;SDS011;63802;53.232;6.570;2024-01-30T12:28:46;2.28;;;1.30;;
75220;SDS011;63802;53.232;6.570;2024-01-30T12:31:12;4.18;;;1.23;;
75220;SDS011;63802;53.232;6.570;2024-01-30T12:33:38;3.35;;;1.08;;
75220;SDS011;63802;53.232;6.570;2024-01-30T12:36:03;2.80;;;0.80;;
75220;SDS011;63802;53.232;6.570;2024-01-30T12:38:29;2.42;;;1.25;;
75220;SDS011;63802;53.232;6.570;2024-01-30T12:40:55;2.60;;;0.95;;
75220;SDS011;63802;53.232;6.570;2024-01-30T12:43:22;1.10;;;0.77;;
75220;SDS011;63802;53.232;6.570;2024-01-30T12:45:49;1.25;;;0.82;;
75220;SDS011;63802;53.232;6.570;2024-01-30T12:48:15;3.67;;;0.98;;
75220;SDS011;63802;53.232;6.570;2024-01-30T12:50:40;0.93;;;0.60;;
75220;SDS011;63802;53.232;6.570;2024-01-30T12:53:09;2.53;;;1.00;;
75220;SDS011;63802;53.232;6.570;2024-01-30T12:55:34;2.20;;;0.90;;
75220;SDS011;63802;53.232;6.570;2024-01-30T12:58:00;1.95;;;1.00;;
75220;SDS011;63802;53.232;6.570;2024-01-30T13:00:26;1.60;;;0.63;;
75220;SDS011;63802;53.232;6.570;2024-01-30T13:02:51;3.22;;;0.95;;
75220;SDS011;63802;53.232;6.570;2024-01-30T13:05:17;2.83;;;0.60;;
75220;SDS011;63802;53.232;6.570;2024-01-30T13:07:42;2.25;;;0.80;;
75220;SDS011;63802;53.232;6.570;2024-01-30T13:10:08;2.97;;;0.90;;
75220;SDS011;63802;53.232;6.570;2024-01-30T13:12:33;2.67;;;1.15;;
75220;SDS011;63802;53.232;6.570;2024-01-30T13:14:59;2.63;;;1.00;;
75220;SDS011;63802;53.232;6.570;2024-01-30T13:19:54;0.80;;;0.80;;
75220;SDS011;63802;53.232;6.570;2024-01-30T13:22:20;2.20;;;0.93;;
75220;SDS011;63802;53.232;6.570;2024-01-30T13:24:48;1.73;;;1.05;;
75220;SDS011;63802;53.232;6.570;2024-01-30T13:27:13;1.00;;;0.90;;
75220;SDS011;63802;53.232;6.570;2024-01-30T13:29:39;2.95;;;1.00;;
75220;SDS011;63802;53.232;6.570;2024-01-30T13:32:04;4.25;;;1.00;;
75220;SDS011;63802;53.232;6.570;2024-01-30T13:34:30;1.08;;;0.98;;
75220;SDS011;63802;53.232;6.570;2024-01-30T13:36:55;3.35;;;1.10;;
75220;SDS011;63802;53.232;6.570;2024-01-30T13:39:21;2.58;;;1.20;;
75220;SDS011;63802;53.232;6.570;2024-01-30T13:41:46;1.88;;;0.95;;
75220;SDS011;63802;53.232;6.570;2024-01-30T13:44:13;4.07;;;1.10;;
75220;SDS011;63802;53.232;6.570;2024-01-30T13:46:38;1.35;;;1.05;;
75220;SDS011;63802;53.232;6.570;2024-01-30T13:49:04;1.50;;;0.98;;
75220;SDS011;63802;53.232;6.570;2024-01-30T13:51:29;3.20;;;1.38;;
75220;SDS011;63802;53.232;6.570;2024-01-30T13:53:55;6.45;;;1.20;;
75220;SDS011;63802;53.232;6.570;2024-01-30T13:56:20;2.70;;;1.25;;
75220;SDS011;63802;53.232;6.570;2024-01-30T13:58:47;3.97;;;1.00;;
75220;SDS011;63802;53.232;6.570;2024-01-30T14:01:14;2.33;;;0.80;;
75220;SDS011;63802;53.232;6.570;2024-01-30T14:03:39;4.18;;;1.02;;
75220;SDS011;63802;53.232;6.570;2024-01-30T14:06:04;1.80;;;1.02;;
75220;SDS011;63802;53.232;6.570;2024-01-30T14:08:30;1.20;;;1.10;;
75220;SDS011;63802;53.232;6.570;2024-01-30T14:10:57;2.97;;;1.17;;
75220;SDS011;63802;53.232;6.570;2024-01-30T14:13:22;3.72;;;1.05;;
75220;SDS011;63802;53.232;6.570;2024-01-30T14:15:49;2.78;;;1.15;;
75220;SDS011;63802;53.232;6.570;2024-01-30T14:18:17;4.18;;;1.10;;
75220;SDS011;63802;53.232;6.570;2024-01-30T14:20:43;2.00;;;1.00;;
75220;SDS011;63802;53.232;6.570;2024-01-30T14:23:08;4.40;;;1.20;;
75220;SDS011;63802;53.232;6.570;2024-01-30T14:25:33;2.42;;;1.25;;
75220;SDS011;63802;53.232;6.570;2024-01-30T14:27:59;1.67;;;1.10;;
75220;SDS011;63802;53.232;6.570;2024-01-30T14:30:24;3.03;;;1.25;;
75220;SDS011;63802;53.232;6.570;2024-01-30T14:32:50;3.15;;;1.40;;
75220;SDS011;63802;53.232;6.570;2024-01-30T14:35:15;2.25;;;1.45;;
75220;SDS011;63802;53.232;6.570;2024-01-30T14:37:41;2.47;;;1.58;;
75220;SDS011;63802;53.232;6.570;2024-01-30T14:40:07;5.28;;;1.33;;
75220;SDS011;63802;53.232;6.570;2024-01-30T14:42:33;1.63;;;1.45;;
75220;SDS011;63802;53.232;6.570;2024-01-30T14:45:01;6.85;;;1.83;;
75220;SDS011;63802;53.232;6.570;2024-01-30T14:47:27;2.08;;;1.38;;
75220;SDS011;63802;53.232;6.570;2024-01-30T14:49:53;5.07;;;2.10;;
75220;SDS011;63802;53.232;6.570;2024-01-30T14:52:18;5.03;;;2.10;;
75220;SDS011;63802;53.232;6.570;2024-01-30T14:54:43;3.80;;;2.00;;
75220;SDS011;63802;53.232;6.570;2024-01-30T14:57:09;4.18;;;1.83;;
75220;SDS011;63802;53.232;6.570;2024-01-30T14:59:35;4.80;;;2.08;;
75220;SDS011;63802;53.232;6.570;2024-01-30T15:02:01;4.93;;;2.28;;
75220;SDS011;63802;53.232;6.570;2024-01-30T15:04:26;8.23;;;2.42;;
75220;SDS011;63802;53.232;6.570;2024-01-30T15:06:52;5.15;;;2.33;;
75220;SDS011;63802;53.232;6.570;2024-01-30T15:09:18;7.55;;;2.50;;
75220;SDS011;63802;53.232;6.570;2024-01-30T15:11:46;8.77;;;2.50;;
75220;SDS011;63802;53.232;6.570;2024-01-30T15:14:12;5.00;;;2.08;;
75220;SDS011;63802;53.232;6.570;2024-01-30T15:16:37;3.30;;;1.83;;
75220;SDS011;63802;53.232;6.570;2024-01-30T15:19:03;7.03;;;2.38;;
75220;SDS011;63802;53.232;6.570;2024-01-30T15:21:29;3.67;;;2.25;;
75220;SDS011;63802;53.232;6.570;2024-01-30T15:23:55;4.63;;;2.10;;
75220;SDS011;63802;53.232;6.570;2024-01-30T15:26:21;5.07;;;2.20;;
75220;SDS011;63802;53.232;6.570;2024-01-30T15:28:47;3.97;;;1.92;;
75220;SDS011;63802;53.232;6.570;2024-01-30T15:31:13;4.70;;;2.20;;
75220;SDS011;63802;53.232;6.570;2024-01-30T15:33:38;7.80;;;2.70;;
75220;SDS011;63802;53.232;6.570;2024-01-30T15:36:03;5.18;;;2.45;;
75220;SDS011;63802;53.232;6.570;2024-01-30T15:38:29;5.03;;;2.13;;
75220;SDS011;63802;53.232;6.570;2024-01-30T15:40:55;3.65;;;2.40;;
75220;SDS011;63802;53.232;6.570;2024-01-30T15:43:21;5.18;;;2.45;;
75220;SDS011;63802;53.232;6.570;2024-01-30T15:45:47;4.72;;;2.50;;
75220;SDS011;63802;53.232;6.570;2024-01-30T15:48:13;4.22;;;2.33;;
75220;SDS011;63802;53.232;6.570;2024-01-30T15:50:39;8.10;;;3.08;;
75220;SDS011;63802;53.232;6.570;2024-01-30T15:53:04;5.22;;;2.75;;
75220;SDS011;63802;53.232;6.570;2024-01-30T15:55:33;6.43;;;2.88;;
75220;SDS011;63802;53.232;6.570;2024-01-30T15:57:59;7.60;;;3.05;;
75220;SDS011;63802;53.232;6.570;2024-01-30T16:00:25;4.85;;;2.13;;
75220;SDS011;63802;53.232;6.570;2024-01-30T16:02:51;6.05;;;2.90;;
75220;SDS011;63802;53.232;6.570;2024-01-30T16:05:19;7.25;;;2.80;;
75220;SDS011;63802;53.232;6.570;2024-01-30T16:07:45;4.68;;;2.20;;
75220;SDS011;63802;53.232;6.570;2024-01-30T16:10:11;7.10;;;2.88;;
75220;SDS011;63802;53.232;6.570;2024-01-30T16:12:41;5.45;;;2.70;;
75220;SDS011;63802;53.232;6.570;2024-01-30T16:15:10;8.23;;;3.15;;
75220;SDS011;63802;53.232;6.570;2024-01-30T16:17:38;6.20;;;2.90;;